Time;durP1;ratioP1;P1;durP2;ratioP2;P2;SDS_P1;SDS_P2;PMS_P1;PMS_P2;Temp;Humidity;BMP_temperature;BMP_pressure;BME280_temperature;BME280_humidity;BME280_pressure;Samples;Min_cycle;Max_cycle;Signal;HPM_P1;HPM_P2
2022/03/16 00:00:23;;;;;;;;;;;;;;;16.64;57.97;100112.47;2089529;28;19921;-46
2022/03/16 00:01:23;;;;;;;;;;;;;;;16.64;58.13;100123.38;2092362;28;19930;-46
2022/03/16 00:02:24;;;;;;;;;;;;;;;16.65;57.92;100110.63;2087412;28;19946;-46
2022/03/16 00:03:24;;;;;;;;;;;;;;;16.64;58.01;100104.31;2088715;28;20369;-47
2022/03/16 00:04:26;;;;;;;;;;;;;;;16.63;58.09;100099.84;2086762;28;20177;-47
2022/03/16 00:05:26;;;;;;;;;;;;;;;16.63;58.15;100099.84;2091018;28;19942;-46
2022/03/16 00:06:27;;;;;;;;;;;;;;;16.63;57.97;100096.28;2085520;28;20515;-47
2022/03/16 00:07:27;;;;;;;;;;;;;;;16.64;58.02;100098.00;2081355;28;19921;-47
2022/03/16 00:08:29;;;;;;;;;;;;;;;16.64;57.93;100108.91;2092212;28;19923;-47
2022/03/16 00:09:29;;;;;;;;;;;;;;;16.63;57.81;100099.84;2094679;28;20355;-46
2022/03/16 00:10:30;;;;;;;;;;;;;;;16.62;57.92;100110.88;2089991;28;19919;-46
2022/03/16 00:11:30;;;;;;;;;;;;;;;16.63;58.23;100108.00;2098860;28;19924;-46
2022/03/16 00:12:30;;;;;;;;;;;;;;;16.63;58.22;100104.44;2093535;28;19917;-49
2022/03/16 00:13:31;;;;;;;;;;;;;;;16.62;57.98;100103.56;2094315;28;19920;-47
2022/03/16 00:14:32;;;;;;;;;;;;;;;16.63;58.01;100102.56;2085360;28;19920;-47
2022/03/16 00:15:32;;;;;;;;;;;;;;;16.62;58.01;100100.84;2090353;28;19920;-49
2022/03/16 00:16:32;;;;;;;;;;;;;;;16.62;58.25;100098.13;2092097;28;20569;-51
2022/03/16 00:17:33;;;;;;;;;;;;;;;16.63;58.03;100096.28;2092909;28;19920;-47
2022/03/16 00:18:33;;;;;;;;;;;;;;;16.61;57.94;100099.16;2087812;28;20277;-48
2022/03/16 00:19:34;;;;;;;;;;;;;;;16.62;58.01;100095.41;2098331;28;20287;-47
2022/03/16 00:20:34;;;;;;;;;;;;;;;16.62;58.03;100095.41;2093004;28;19920;-47
2022/03/16 00:21:34;;;;;;;;;;;;;;;16.62;58.04;100095.41;2088186;28;19936;-48
2022/03/16 00:22:35;;;;;;;;;;;;;;;16.62;58.04;100100.84;2096693;28;19916;-48
2022/03/16 00:23:35;;;;;;;;;;;;;;;16.63;57.93;100107.16;2091874;28;20048;-46
2022/03/16 00:24:35;;;;;;;;;;;;;;;16.64;58.18;100115.19;2089928;28;19932;-47
2022/03/16 00:25:36;;;;;;;;;;;;;;;16.63;58.18;100104.44;2091411;28;20387;-48
2022/03/16 00:26:36;;;;;;;;;;;;;;;16.63;58.01;100113.47;2087105;28;19943;-47
2022/03/16 00:27:36;;;;;;;;;;;;;;;16.65;58.07;100126.94;2093391;28;20032;-47
2022/03/16 00:28:37;;;;;;;;;;;;;;;16.64;58.19;100128.81;2092116;28;20388;-46
2022/03/16 00:29:37;;;;;;;;;;;;;;;16.65;58.04;100122.34;2092921;28;19912;-47
2022/03/16 00:30:38;;;;;;;;;;;;;;;16.65;57.96;100126.94;2092876;28;20846;-47
2022/03/16 00:31:38;;;;;;;;;;;;;;;16.65;57.97;100116.06;2085759;28;19924;-46
2022/03/16 00:32:38;;;;;;;;;;;;;;;16.66;58.03;100124.09;2091142;28;19927;-48
2022/03/16 00:33:39;;;;;;;;;;;;;;;16.66;58.09;100117.81;2088177;28;19920;-51
2022/03/16 00:34:39;;;;;;;;;;;;;;;16.66;57.98;100115.09;2093260;28;20310;-46
2022/03/16 00:35:39;;;;;;;;;;;;;;;16.67;57.97;100116.78;2097591;28;19908;-46
2022/03/16 00:36:39;;;;;;;;;;;;;;;16.65;58.15;100106.03;2086943;28;19920;-46
2022/03/16 00:37:40;;;;;;;;;;;;;;;16.67;57.97;100114.06;2093909;28;19942;-47
2022/03/16 00:38:40;;;;;;;;;;;;;;;16.68;58.04;100116.66;2089991;28;20027;-47
2022/03/16 00:39:40;;;;;;;;;;;;;;;16.66;57.87;100104.19;2095142;28;19926;-46
2022/03/16 00:40:41;;;;;;;;;;;;;;;16.65;57.94;100103.31;2093603;28;19916;-47
2022/03/16 00:41:41;;;;;;;;;;;;;;;16.65;57.98;100103.31;2094321;28;20044;-47
2022/03/16 00:42:41;;;;;;;;;;;;;;;16.67;57.79;100109.47;2093320;28;20298;-46
2022/03/16 00:43:42;;;;;;;;;;;;;;;16.67;57.95;100109.47;2095054;28;19955;-46
2022/03/16 00:44:42;;;;;;;;;;;;;;;16.68;57.87;100107.63;2094201;28;19912;-45
2022/03/16 00:45:43;;;;;;;;;;;;;;;16.67;57.91;100109.47;2094348;28;19924;-46
2022/03/16 00:46:43;;;;;;;;;;;;;;;16.68;57.95;100111.22;2087336;28;21115;-46
2022/03/16 00:47:44;;;;;;;;;;;;;;;16.69;57.94;100114.81;2091910;28;19920;-46
2022/03/16 00:48:44;;;;;;;;;;;;;;;16.67;57.88;100114.94;2090121;28;20013;-46
2022/03/16 00:49:44;;;;;;;;;;;;;;;16.68;57.80;100110.34;2097924;28;19958;-45
2022/03/16 00:50:45;;;;;;;;;;;;;;;16.68;57.94;100111.22;2091819;28;20020;-46
2022/03/16 00:51:45;;;;;;;;;;;;;;;16.68;58.00;100096.72;2092255;28;20680;-49
2022/03/16 00:52:45;;;;;;;;;;;;;;;16.68;57.98;100104.88;2091337;28;19923;-47
2022/03/16 00:53:46;;;;;;;;;;;;;;;16.68;57.92;100103.06;2093244;28;20049;-46
2022/03/16 00:54:46;;;;;;;;;;;;;;;16.67;57.91;100093.16;2097499;28;20388;-47
2022/03/16 00:55:46;;;;;;;;;;;;;;;16.68;58.13;100100.34;2090289;28;20422;-47
2022/03/16 00:56:47;;;;;;;;;;;;;;;16.68;57.80;100100.34;2091849;28;19924;-47
2022/03/16 00:57:47;;;;;;;;;;;;;;;16.67;57.99;100095.00;2082743;28;20462;-47
2022/03/16 00:58:47;;;;;;;;;;;;;;;16.67;57.95;100104.03;2081686;28;19920;-46
2022/03/16 00:59:47;;;;;;;;;;;;;;;16.69;57.87;100095.75;2090154;28;20356;-46
2022/03/16 01:00:48;;;;;;;;;;;;;;;16.67;58.01;100093.16;2085976;28;19965;-46
2022/03/16 01:01:48;;;;;;;;;;;;;;;16.68;58.18;100103.06;2089825;28;19916;-46
2022/03/16 01:02:48;;;;;;;;;;;;;;;16.67;57.94;100101.31;2077613;28;19942;-47
2022/03/16 01:03:48;;;;;;;;;;;;;;;16.68;57.70;100102.16;2095258;28;20145;-48
2022/03/16 01:04:49;;;;;;;;;;;;;;;16.68;57.91;100103.06;2092024;28;19927;-46
2022/03/16 01:05:49;;;;;;;;;;;;;;;16.66;58.02;100099.59;2091567;28;19924;-47
2022/03/16 01:06:53;;;;;;;;;;;;;;;16.67;57.93;100095.88;2090223;28;19919;-46
2022/03/16 01:07:53;;;;;;;;;;;;;;;16.68;58.02;100091.28;2080969;28;19932;-48
2022/03/16 01:08:53;;;;;;;;;;;;;;;16.67;57.74;100093.16;2094361;28;19916;-46
2022/03/16 01:09:54;;;;;;;;;;;;;;;16.67;57.93;100087.72;2099834;28;20028;-47
2022/03/16 01:10:54;;;;;;;;;;;;;;;16.67;58.12;100093.16;2093596;28;19924;-49
2022/03/16 01:11:55;;;;;;;;;;;;;;;16.67;57.89;100093.16;2093922;28;19945;-48
2022/03/16 01:12:55;;;;;;;;;;;;;;;16.67;58.02;100090.44;2089872;28;19970;-47
2022/03/16 01:13:56;;;;;;;;;;;;;;;16.66;57.87;100080.56;2082565;28;19927;-47
2022/03/16 01:14:56;;;;;;;;;;;;;;;16.67;57.89;100095.00;2077475;28;19928;-47
2022/03/16 01:15:57;;;;;;;;;;;;;;;16.66;58.00;100088.72;2083896;28;19920;-49
2022/03/16 01:16:57;;;;;;;;;;;;;;;16.66;57.94;100080.56;2094618;28;19919;-48
2022/03/16 01:17:57;;;;;;;;;;;;;;;16.65;57.94;100084.25;2094674;28;19920;-49
2022/03/16 01:18:57;;;;;;;;;;;;;;;16.67;58.02;100090.44;2090079;28;19920;-47
2022/03/16 01:19:58;;;;;;;;;;;;;;;16.66;58.05;100079.69;2092325;28;19919;-46
2022/03/16 01:20:58;;;;;;;;;;;;;;;16.66;58.09;100079.69;2091097;28;20518;-48
2022/03/16 01:21:59;;;;;;;;;;;;;;;16.66;58.00;100080.56;2092518;28;20133;-46
2022/03/16 01:22:59;;;;;;;;;;;;;;;16.65;58.05;100084.25;2097620;28;19920;-47
2022/03/16 01:24:00;;;;;;;;;;;;;;;16.65;57.94;100078.81;2090996;28;20387;-46
2022/03/16 01:25:00;;;;;;;;;;;;;;;16.66;58.07;100074.25;2092773;28;19976;-47
2022/03/16 01:26:00;;;;;;;;;;;;;;;16.66;57.89;100074.25;2087171;28;20369;-46
2022/03/16 01:27:01;;;;;;;;;;;;;;;16.66;57.76;100074.25;2097731;28;19919;-46
2022/03/16 01:28:01;;;;;;;;;;;;;;;16.66;57.98;100076.97;2092504;28;20262;-46
2022/03/16 01:29:02;;;;;;;;;;;;;;;16.65;57.98;100078.81;2090297;28;19951;-46
2022/03/16 01:30:03;;;;;;;;;;;;;;;16.67;57.80;100073.25;2092210;28;19969;-48
2022/03/16 01:31:04;;;;;;;;;;;;;;;16.68;57.94;100075.84;2091101;28;19924;-48
2022/03/16 01:32:04;;;;;;;;;;;;;;;16.68;57.86;100073.13;2091811;28;20482;-47
2022/03/16 01:33:04;;;;;;;;;;;;;;;16.69;57.76;100072.09;2099413;28;19919;-46
2022/03/16 01:34:05;;;;;;;;;;;;;;;16.68;57.95;100056.78;2091272;28;20020;-46
2022/03/16 01:35:05;;;;;;;;;;;;;;;16.69;57.83;100057.66;2089362;28;19932;-47
2022/03/16 01:36:06;;;;;;;;;;;;;;;16.70;57.95;100059.34;2088616;28;20171;-46
2022/03/16 01:37:06;;;;;;;;;;;;;;;16.69;57.67;100052.19;2098425;28;20279;-46
2022/03/16 01:38:06;;;;;;;;;;;;;;;16.70;57.86;100057.50;2092799;28;20224;-46
2022/03/16 01:39:07;;;;;;;;;;;;;;;16.69;57.85;100053.06;2093596;28;19922;-46
2022/03/16 01:40:07;;;;;;;;;;;;;;;16.70;57.90;100054.78;2085697;28;19920;-46
2022/03/16 01:41:07;;;;;;;;;;;;;;;16.70;58.01;100048.47;2087871;28;20602;-47
2022/03/16 01:42:08;;;;;;;;;;;;;;;16.70;57.80;100043.88;2089199;28;20333;-48
2022/03/16 01:43:08;;;;;;;;;;;;;;;16.70;57.85;100038.44;2087493;28;19936;-47
2022/03/16 01:44:09;;;;;;;;;;;;;;;16.69;57.78;100036.72;2090962;28;19927;-45
2022/03/16 01:45:10;;;;;;;;;;;;;;;16.71;57.67;100034.72;2090181;28;19920;-48
2022/03/16 01:46:10;;;;;;;;;;;;;;;16.71;57.75;100040.19;2093370;28;20000;-47
2022/03/16 01:47:11;;;;;;;;;;;;;;;16.70;57.96;100038.44;2088901;28;19927;-46
2022/03/16 01:48:12;;;;;;;;;;;;;;;16.70;57.90;100035.72;2095566;28;20362;-47
2022/03/16 01:49:13;;;;;;;;;;;;;;;16.70;57.82;100030.28;2090095;28;19927;-47
2022/03/16 01:50:13;;;;;;;;;;;;;;;16.70;57.65;100035.72;2083208;28;20163;-47
2022/03/16 01:51:13;;;;;;;;;;;;;;;16.70;57.76;100024.81;2077374;28;19921;-47
2022/03/16 01:52:24;;;;;;;;;;;;;;;16.70;57.74;100030.28;2095808;28;20294;-46
2022/03/16 01:53:25;;;;;;;;;;;;;;;16.71;57.68;100033.88;2095485;28;19923;-45
2022/03/16 01:54:25;;;;;;;;;;;;;;;16.70;57.74;100033.00;2095154;28;19926;-47
2022/03/16 01:55:26;;;;;;;;;;;;;;;16.70;57.62;100027.53;2091710;28;19927;-47
2022/03/16 01:56:26;;;;;;;;;;;;;;;16.70;57.71;100024.81;2086054;28;19931;-47
2022/03/16 01:57:26;;;;;;;;;;;;;;;16.70;57.84;100027.53;2086197;28;20430;-48
2022/03/16 01:58:27;;;;;;;;;;;;;;;16.70;57.76;100026.69;2094591;28;19922;-46
2022/03/16 01:59:27;;;;;;;;;;;;;;;16.69;57.74;100025.84;2090157;28;19912;-49
2022/03/16 02:00:27;;;;;;;;;;;;;;;16.69;57.84;100022.25;2090552;28;19917;-46
2022/03/16 02:01:28;;;;;;;;;;;;;;;16.69;57.78;100016.81;2092823;28;20019;-46
2022/03/16 02:02:28;;;;;;;;;;;;;;;16.69;57.66;100020.41;2086711;28;19927;-46
2022/03/16 02:03:29;;;;;;;;;;;;;;;16.69;57.86;100020.41;2078795;28;19954;-46
2022/03/16 02:04:29;;;;;;;;;;;;;;;16.68;57.80;100015.97;2090457;28;20821;-47
2022/03/16 02:05:29;;;;;;;;;;;;;;;16.69;57.84;100016.81;2090857;28;19916;-46
2022/03/16 02:06:30;;;;;;;;;;;;;;;16.68;57.93;100024.13;2087055;28;20328;-47
2022/03/16 02:07:30;;;;;;;;;;;;;;;16.68;57.86;100026.84;2091442;28;19924;-47
2022/03/16 02:08:32;;;;;;;;;;;;;;;16.66;57.67;100023.41;2096589;28;19926;-46
2022/03/16 02:09:33;;;;;;;;;;;;;;;16.67;57.87;100025.09;2092895;28;19927;-46
2022/03/16 02:10:34;;;;;;;;;;;;;;;16.67;57.77;100027.81;2087944;28;19920;-46
2022/03/16 02:11:34;;;;;;;;;;;;;;;16.68;58.00;100029.56;2097781;28;20327;-46
2022/03/16 02:12:41;;;;;;;;;;;;;;;16.68;58.02;100026.84;2090440;28;19985;-47
2022/03/16 02:13:41;;;;;;;;;;;;;;;16.67;57.97;100019.66;2091722;28;19931;-46
2022/03/16 02:14:42;;;;;;;;;;;;;;;16.67;58.04;100016.94;2085409;28;19942;-46
2022/03/16 02:15:42;;;;;;;;;;;;;;;16.68;57.88;100018.69;2090291;28;20728;-47
2022/03/16 02:16:42;;;;;;;;;;;;;;;16.68;57.96;100007.78;2092577;28;20003;-46
2022/03/16 02:17:43;;;;;;;;;;;;;;;16.68;58.01;100013.25;2089260;28;19994;-46
2022/03/16 02:18:43;;;;;;;;;;;;;;;16.68;58.02;100005.06;2093852;28;19916;-46
2022/03/16 02:19:43;;;;;;;;;;;;;;;16.67;58.01;100006.06;2092274;28;19924;-48
2022/03/16 02:20:49;;;;;;;;;;;;;;;16.69;57.78;100008.66;2091570;28;19923;-48
2022/03/16 02:21:54;;;;;;;;;;;;;;;16.69;57.96;100006.78;2090509;28;20120;-49
2022/03/16 02:22:54;;;;;;;;;;;;;;;16.69;58.12;100005.94;2086209;28;19920;-46
2022/03/16 02:23:54;;;;;;;;;;;;;;;16.70;57.75;100002.19;2090450;28;20199;-46
2022/03/16 02:24:55;;;;;;;;;;;;;;;16.70;57.85;100008.50;2087079;28;20349;-47
2022/03/16 02:25:55;;;;;;;;;;;;;;;16.71;57.85;100002.06;2087152;28;20157;-49
2022/03/16 02:26:56;;;;;;;;;;;;;;;16.71;57.89;100001.22;2091536;28;19989;-50
2022/03/16 02:27:57;;;;;;;;;;;;;;;16.72;57.88;100000.22;2094277;28;19930;-48
2022/03/16 02:28:58;;;;;;;;;;;;;;;16.72;58.04;99998.34;2093002;28;19920;-48
2022/03/16 02:29:58;;;;;;;;;;;;;;;16.72;57.96;99992.03;2088376;28;19947;-47
2022/03/16 02:30:59;;;;;;;;;;;;;;;16.72;57.63;99997.47;2085741;28;19950;-50
2022/03/16 02:31:59;;;;;;;;;;;;;;;16.72;57.85;99992.91;2091813;28;19912;-47
2022/03/16 02:33:00;;;;;;;;;;;;;;;16.72;57.83;99995.63;2093168;28;19916;-47
2022/03/16 02:34:00;;;;;;;;;;;;;;;16.72;57.81;99992.91;2087611;28;20603;-47
2022/03/16 02:35:00;;;;;;;;;;;;;;;16.72;57.76;99992.91;2094610;28;19930;-47
2022/03/16 02:36:01;;;;;;;;;;;;;;;16.72;57.67;99992.91;2091519;28;19932;-48
2022/03/16 02:37:01;;;;;;;;;;;;;;;16.72;57.72;99982.00;2082773;28;19987;-47
2022/03/16 02:38:03;;;;;;;;;;;;;;;16.74;57.70;99994.63;2082265;28;20014;-48
2022/03/16 02:39:03;;;;;;;;;;;;;;;16.73;57.82;99988.31;2091877;28;19924;-48
2022/03/16 02:40:04;;;;;;;;;;;;;;;16.72;57.64;99987.44;2086177;28;19919;-46
2022/03/16 02:41:04;;;;;;;;;;;;;;;16.72;57.67;99984.72;2091566;28;19927;-46
2022/03/16 02:42:04;;;;;;;;;;;;;;;16.74;57.71;99991.91;2093933;28;21480;-46
2022/03/16 02:43:05;;;;;;;;;;;;;;;16.73;57.74;99996.47;2087625;28;19920;-48
2022/03/16 02:44:06;;;;;;;;;;;;;;;16.74;57.71;99994.63;2084304;28;21866;-46
2022/03/16 02:45:06;;;;;;;;;;;;;;;16.73;57.72;99993.75;2096138;28;20301;-47
2022/03/16 02:46:07;;;;;;;;;;;;;;;16.74;57.62;99994.63;2087546;28;20852;-45
2022/03/16 02:47:08;;;;;;;;;;;;;;;16.74;57.67;99989.19;2085059;28;19993;-45
2022/03/16 02:48:08;;;;;;;;;;;;;;;16.74;57.81;99989.19;2087946;28;19949;-46
2022/03/16 02:49:09;;;;;;;;;;;;;;;16.72;57.88;99987.44;2091365;28;19948;-46
2022/03/16 02:50:10;;;;;;;;;;;;;;;16.74;57.81;99989.19;2092948;28;19976;-46
2022/03/16 02:51:10;;;;;;;;;;;;;;;16.72;57.68;99981.16;2087295;28;19911;-46
2022/03/16 02:52:11;;;;;;;;;;;;;;;16.72;57.82;99987.44;2088245;28;19929;-47
2022/03/16 02:53:12;;;;;;;;;;;;;;;16.72;57.74;99986.59;2088169;28;20120;-46
2022/03/16 02:54:12;;;;;;;;;;;;;;;16.72;57.75;99982.00;2091209;28;20590;-47
2022/03/16 02:55:13;;;;;;;;;;;;;;;16.72;57.84;99984.72;2093891;28;19922;-48
2022/03/16 02:56:14;;;;;;;;;;;;;;;16.71;57.75;99982.16;2087614;28;20600;-50
2022/03/16 02:57:16;;;;;;;;;;;;;;;16.71;57.73;99977.56;2090185;28;19915;-46
2022/03/16 02:58:16;;;;;;;;;;;;;;;16.73;57.91;99982.88;2089160;28;19916;-47
2022/03/16 02:59:17;;;;;;;;;;;;;;;16.72;57.79;99975.72;2095972;28;19942;-46
2022/03/16 03:00:18;;;;;;;;;;;;;;;16.71;57.84;99980.28;2081718;28;20452;-47
2022/03/16 03:01:18;;;;;;;;;;;;;;;16.72;57.77;99981.16;2081626;28;19920;-49
2022/03/16 03:02:19;;;;;;;;;;;;;;;16.71;57.84;99980.28;2093833;28;19930;-49
2022/03/16 03:03:19;;;;;;;;;;;;;;;16.72;57.65;99990.16;2095174;28;19908;-45
2022/03/16 03:04:19;;;;;;;;;;;;;;;16.72;57.61;99990.16;2093670;28;19992;-48
2022/03/16 03:05:20;;;;;;;;;;;;;;;16.71;57.71;99991.19;2093719;28;19943;-47
2022/03/16 03:06:20;;;;;;;;;;;;;;;16.72;57.79;99990.16;2091354;28;19916;-46
2022/03/16 03:07:21;;;;;;;;;;;;;;;16.71;57.77;99985.75;2090384;28;19959;-47
2022/03/16 03:08:21;;;;;;;;;;;;;;;16.70;57.74;99984.00;2095525;28;20238;-46
2022/03/16 03:09:21;;;;;;;;;;;;;;;16.70;57.80;99984.00;2080651;28;19963;-45
2022/03/16 03:10:22;;;;;;;;;;;;;;;16.70;58.00;99992.16;2082650;28;20396;-47
2022/03/16 03:11:23;;;;;;;;;;;;;;;16.69;57.86;99982.28;2094195;28;20003;-46
2022/03/16 03:12:23;;;;;;;;;;;;;;;16.70;57.69;99989.44;2088177;28;19928;-47
2022/03/16 03:13:24;;;;;;;;;;;;;;;16.70;57.63;99977.69;2085743;28;19921;-48
2022/03/16 03:14:25;;;;;;;;;;;;;;;16.70;57.67;99978.56;2090903;28;20388;-49
2022/03/16 03:15:25;;;;;;;;;;;;;;;16.70;57.86;99967.66;2094520;28;19920;-46
2022/03/16 03:16:26;;;;;;;;;;;;;;;16.70;57.77;99975.84;2089199;28;19973;-46
2022/03/16 03:17:26;;;;;;;;;;;;;;;16.70;57.77;99973.13;2094899;28;19923;-47
2022/03/16 03:18:26;;;;;;;;;;;;;;;16.70;57.90;99970.38;2091845;28;19965;-47
2022/03/16 03:19:27;;;;;;;;;;;;;;;16.71;57.89;99963.97;2083630;28;19924;-46
2022/03/16 03:20:27;;;;;;;;;;;;;;;16.72;57.96;99975.72;2085137;28;19920;-46
2022/03/16 03:21:28;;;;;;;;;;;;;;;16.71;57.88;99969.41;2092507;28;20313;-48
2022/03/16 03:22:28;;;;;;;;;;;;;;;16.71;57.81;99963.97;2080629;28;20370;-47
2022/03/16 03:23:29;;;;;;;;;;;;;;;16.71;57.80;99963.97;2086444;28;19925;-45
2022/03/16 03:24:29;;;;;;;;;;;;;;;16.71;57.89;99958.53;2082425;28;19940;-47
2022/03/16 03:25:29;;;;;;;;;;;;;;;16.72;57.66;99968.41;2091685;28;20161;-46
2022/03/16 03:26:30;;;;;;;;;;;;;;;16.74;57.63;99967.41;2092392;28;19962;-48
2022/03/16 03:27:32;;;;;;;;;;;;;;;16.74;57.86;99967.41;2095938;28;20010;-46
2022/03/16 03:28:32;;;;;;;;;;;;;;;16.74;57.51;99970.13;2093296;28;20212;-46
2022/03/16 03:29:32;;;;;;;;;;;;;;;16.74;57.72;99970.13;2096227;28;19920;-46
2022/03/16 03:30:32;;;;;;;;;;;;;;;16.74;57.70;99968.28;2089184;28;19976;-46
2022/03/16 03:31:33;;;;;;;;;;;;;;;16.75;57.79;99969.13;2088329;28;19985;-47
2022/03/16 03:32:34;;;;;;;;;;;;;;;16.75;57.64;99969.97;2092594;28;20330;-47
2022/03/16 03:33:34;;;;;;;;;;;;;;;16.76;57.80;99970.88;2096577;28;19955;-46
2022/03/16 03:34:34;;;;;;;;;;;;;;;16.76;57.60;99976.31;2096066;28;20211;-46
2022/03/16 03:35:35;;;;;;;;;;;;;;;16.76;57.62;99981.75;2092670;28;19978;-47
2022/03/16 03:36:35;;;;;;;;;;;;;;;16.76;57.86;99984.47;2091385;28;20244;-47
2022/03/16 03:37:36;;;;;;;;;;;;;;;16.76;57.67;99979.03;2097434;28;19939;-46
2022/03/16 03:38:36;;;;;;;;;;;;;;;16.74;57.70;99978.31;2089311;28;19920;-46
2022/03/16 03:39:37;;;;;;;;;;;;;;;16.76;57.71;99976.31;2089879;28;19924;-46
2022/03/16 03:40:37;;;;;;;;;;;;;;;16.75;57.52;99980.00;2090473;28;19942;-46
2022/03/16 03:41:37;;;;;;;;;;;;;;;16.77;57.62;99983.47;2080389;28;19925;-46
2022/03/16 03:42:38;;;;;;;;;;;;;;;16.77;57.72;99978.88;2090291;28;20408;-46
2022/03/16 03:43:38;;;;;;;;;;;;;;;16.77;57.70;99978.03;2094885;28;19919;-47
2022/03/16 03:44:39;;;;;;;;;;;;;;;16.77;57.76;99978.03;2095548;28;19923;-46
2022/03/16 03:45:39;;;;;;;;;;;;;;;16.76;57.61;99984.47;2098753;28;20229;-48
2022/03/16 03:46:40;;;;;;;;;;;;;;;16.76;57.69;99984.47;2082080;28;19920;-47
2022/03/16 03:47:40;;;;;;;;;;;;;;;16.77;57.64;99980.75;2081078;28;20586;-48
2022/03/16 03:48:41;;;;;;;;;;;;;;;16.76;57.75;99974.44;2093296;28;19926;-46
2022/03/16 03:49:42;;;;;;;;;;;;;;;16.75;57.70;99980.88;2090063;28;19920;-47
2022/03/16 03:50:42;;;;;;;;;;;;;;;16.75;57.51;99980.88;2094106;28;19920;-46
2022/03/16 03:51:42;;;;;;;;;;;;;;;16.75;57.47;99974.56;2091086;28;19924;-48
2022/03/16 03:52:43;;;;;;;;;;;;;;;16.76;57.68;99984.47;2092807;28;19970;-46
2022/03/16 03:53:43;;;;;;;;;;;;;;;16.74;57.91;99984.59;2096378;28;20899;-46
2022/03/16 03:54:43;;;;;;;;;;;;;;;16.76;57.85;99987.19;2089284;28;19971;-46
2022/03/16 03:55:43;;;;;;;;;;;;;;;16.74;57.73;99983.75;2092075;28;19930;-46
2022/03/16 03:56:44;;;;;;;;;;;;;;;16.74;57.69;99978.31;2093506;28;19908;-45
2022/03/16 03:57:44;;;;;;;;;;;;;;;16.74;57.75;99978.31;2095989;28;20300;-47
2022/03/16 03:58:45;;;;;;;;;;;;;;;16.73;57.77;99980.13;2091175;28;19963;-45
2022/03/16 03:59:45;;;;;;;;;;;;;;;16.74;57.87;99975.59;2089986;28;19928;-46
2022/03/16 04:00:46;;;;;;;;;;;;;;;16.72;57.67;99976.56;2087088;28;19956;-46
2022/03/16 04:01:46;;;;;;;;;;;;;;;16.73;57.96;99977.41;2088352;28;19924;-46
2022/03/16 04:02:50;;;;;;;;;;;;;;;16.72;57.76;99979.28;2092055;28;19963;-45
2022/03/16 04:03:51;;;;;;;;;;;;;;;16.71;57.66;99985.75;2083220;28;20262;-46
2022/03/16 04:04:51;;;;;;;;;;;;;;;16.72;57.75;99987.44;2082139;28;19913;-46
2022/03/16 04:05:51;;;;;;;;;;;;;;;16.72;57.91;99998.34;2087577;28;20279;-46
2022/03/16 04:06:52;;;;;;;;;;;;;;;16.72;57.97;99992.03;2089134;28;19912;-46
2022/03/16 04:07:52;;;;;;;;;;;;;;;16.72;57.62;99987.44;2098079;28;19911;-46
2022/03/16 04:08:53;;;;;;;;;;;;;;;16.71;57.93;99985.75;2095060;28;19912;-45
2022/03/16 04:09:53;;;;;;;;;;;;;;;16.72;57.68;99986.59;2090623;28;20725;-45
2022/03/16 04:10:53;;;;;;;;;;;;;;;16.71;57.91;99983.03;2090135;28;20260;-47
2022/03/16 04:11:54;;;;;;;;;;;;;;;16.72;57.96;99973.84;2085498;28;20579;-46
2022/03/16 04:12:54;;;;;;;;;;;;;;;16.72;57.90;99970.25;2082462;28;19920;-45
2022/03/16 04:13:54;;;;;;;;;;;;;;;16.72;57.91;99976.56;2083915;28;20614;-46
2022/03/16 04:14:54;;;;;;;;;;;;;;;16.72;57.80;99975.72;2084703;28;19924;-47
2022/03/16 04:15:55;;;;;;;;;;;;;;;16.73;57.69;99980.13;2090948;28;19982;-46
2022/03/16 04:16:55;;;;;;;;;;;;;;;16.74;58.06;99979.16;2078534;28;19999;-46
2022/03/16 04:17:55;;;;;;;;;;;;;;;16.74;57.61;99979.16;2081520;28;19966;-48
2022/03/16 04:18:56;;;;;;;;;;;;;;;16.75;57.82;99980.00;2090048;28;20009;-46
2022/03/16 04:19:56;;;;;;;;;;;;;;;16.75;57.81;99977.28;2084731;28;19927;-45
2022/03/16 04:20:56;;;;;;;;;;;;;;;16.75;57.82;99982.75;2083293;28;19920;-46
2022/03/16 04:21:57;;;;;;;;;;;;;;;16.76;57.87;99979.03;2078468;28;20568;-46
2022/03/16 04:22:57;;;;;;;;;;;;;;;16.76;57.74;99981.75;2082385;28;19931;-46
2022/03/16 04:23:57;;;;;;;;;;;;;;;16.77;57.94;99986.19;2088904;28;19920;-45
2022/03/16 04:24:57;;;;;;;;;;;;;;;16.77;57.86;99983.47;2086430;28;19916;-47
2022/03/16 04:25:58;;;;;;;;;;;;;;;16.76;57.74;99981.75;2087822;28;19920;-46
2022/03/16 04:26:58;;;;;;;;;;;;;;;16.77;57.80;99984.31;2079644;28;19921;-46
2022/03/16 04:27:58;;;;;;;;;;;;;;;16.77;57.80;99978.88;2083993;28;20236;-46
2022/03/16 04:28:59;;;;;;;;;;;;;;;16.78;57.78;99979.72;2082648;28;19912;-46
2022/03/16 04:29:59;;;;;;;;;;;;;;;16.77;57.59;99983.47;2085175;28;19934;-45
2022/03/16 04:31:00;;;;;;;;;;;;;;;16.76;57.60;99977.16;2087628;28;20223;-45
2022/03/16 04:32:00;;;;;;;;;;;;;;;16.77;57.66;99984.31;2082531;28;20342;-46
2022/03/16 04:33:01;;;;;;;;;;;;;;;16.78;57.79;99985.19;2084481;28;19912;-45
2022/03/16 04:34:01;;;;;;;;;;;;;;;16.78;57.75;99982.44;2089030;28;19912;-46
2022/03/16 04:35:02;;;;;;;;;;;;;;;16.77;57.64;99980.75;2081198;28;19924;-46
2022/03/16 04:36:02;;;;;;;;;;;;;;;16.76;57.71;99981.75;2083874;28;19932;-47
2022/03/16 04:37:03;;;;;;;;;;;;;;;16.77;57.44;99983.47;2082102;28;20396;-46
2022/03/16 04:38:03;;;;;;;;;;;;;;;16.77;57.71;99978.03;2084146;28;19928;-45
2022/03/16 04:39:04;;;;;;;;;;;;;;;16.77;57.64;99975.31;2083306;28;19935;-47
2022/03/16 04:40:04;;;;;;;;;;;;;;;16.77;57.75;99968.00;2085525;28;19920;-46
2022/03/16 04:41:05;;;;;;;;;;;;;;;16.77;57.59;99975.31;2083328;28;19920;-45
2022/03/16 04:42:06;;;;;;;;;;;;;;;16.76;57.48;99971.72;2083352;28;19920;-46
2022/03/16 04:43:06;;;;;;;;;;;;;;;16.76;57.85;99976.31;2081079;28;20102;-46
2022/03/16 04:44:06;;;;;;;;;;;;;;;16.75;57.60;99974.56;2084713;28;19930;-45
2022/03/16 04:45:07;;;;;;;;;;;;;;;16.76;57.75;99970.88;2080771;28;19921;-47
2022/03/16 04:46:07;;;;;;;;;;;;;;;16.75;57.48;99974.56;2079892;28;19966;-48
2022/03/16 04:47:07;;;;;;;;;;;;;;;16.75;57.76;99978.16;2083550;28;20369;-47
2022/03/16 04:48:09;;;;;;;;;;;;;;;16.75;57.78;99964.53;2082710;28;19943;-45
2022/03/16 04:49:09;;;;;;;;;;;;;;;16.75;57.85;99974.56;2083252;28;19955;-46
2022/03/16 04:50:09;;;;;;;;;;;;;;;16.75;57.68;99964.53;2085430;28;20650;-48
2022/03/16 04:51:09;;;;;;;;;;;;;;;16.74;57.83;99961.97;2085122;28;19916;-47
2022/03/16 04:52:10;;;;;;;;;;;;;;;16.76;57.74;99959.97;2085901;28;19931;-46
2022/03/16 04:53:10;;;;;;;;;;;;;;;16.72;57.70;99957.50;2083826;28;20178;-46
2022/03/16 04:54:10;;;;;;;;;;;;;;;16.74;57.67;99961.97;2080528;28;20017;-47
2022/03/16 04:55:11;;;;;;;;;;;;;;;16.74;57.64;99956.53;2082786;28;20354;-46
2022/03/16 04:56:12;;;;;;;;;;;;;;;16.74;57.55;99953.81;2078927;28;19931;-47
2022/03/16 04:57:13;;;;;;;;;;;;;;;16.74;57.70;99951.09;2091331;28;20392;-46
2022/03/16 04:58:13;;;;;;;;;;;;;;;16.74;57.66;99956.53;2084673;28;19937;-46
2022/03/16 04:59:13;;;;;;;;;;;;;;;16.74;57.71;99951.09;2082743;28;19923;-46
2022/03/16 05:00:14;;;;;;;;;;;;;;;16.75;57.99;99958.25;2089244;28;19934;-47
2022/03/16 05:01:14;;;;;;;;;;;;;;;16.75;57.62;99955.50;2083616;28;20223;-45
2022/03/16 05:02:14;;;;;;;;;;;;;;;16.75;57.72;99953.66;2090106;28;20072;-46
2022/03/16 05:03:15;;;;;;;;;;;;;;;16.75;57.72;99958.25;2081704;28;19926;-46
2022/03/16 05:04:15;;;;;;;;;;;;;;;16.74;57.79;99956.53;2089803;28;19950;-47
2022/03/16 05:05:15;;;;;;;;;;;;;;;16.74;57.83;99945.63;2083053;28;20033;-46
2022/03/16 05:06:15;;;;;;;;;;;;;;;16.72;57.84;99938.47;2083991;28;19988;-47
2022/03/16 05:07:16;;;;;;;;;;;;;;;16.74;57.80;99937.47;2088590;28;20001;-46
2022/03/16 05:08:16;;;;;;;;;;;;;;;16.75;57.70;99939.19;2081483;28;19920;-47
2022/03/16 05:09:16;;;;;;;;;;;;;;;16.72;57.72;99943.91;2087968;28;19931;-47
2022/03/16 05:10:17;;;;;;;;;;;;;;;16.74;58.03;99945.63;2083531;28;19920;-47
2022/03/16 05:11:17;;;;;;;;;;;;;;;16.74;57.79;99940.19;2084895;28;19921;-48
2022/03/16 05:12:17;;;;;;;;;;;;;;;16.73;57.93;99933.88;2098760;28;19916;-47
2022/03/16 05:13:18;;;;;;;;;;;;;;;16.74;57.95;99934.75;2093193;28;19920;-46